sensor_id;sensor_type;location;lat;lon;timestamp;pressure;altitude;pressure_sealevel;temperature;humidity
13732;BME280;6937;56.096;12.664;2023-02-03T00:01:12;101185.72;;;2.69;100.00
13732;BME280;6937;56.096;12.664;2023-02-03T00:03:37;101175.00;;;2.73;100.00
13732;BME280;6937;56.096;12.664;2023-02-03T00:06:03;101158.16;;;2.77;100.00
13732;BME280;6937;56.096;12.664;2023-02-03T00:08:29;101149.31;;;2.78;100.00
13732;BME280;6937;56.096;12.664;2023-02-03T00:10:54;101135.16;;;2.81;100.00
13732;BME280;6937;56.096;12.664;2023-02-03T00:13:21;101129.00;;;2.80;100.00
13732;BME280;6937;56.096;12.664;2023-02-03T00:15:46;101123.94;;;2.74;100.00
13732;BME280;6937;56.096;12.664;2023-02-03T00:18:12;101120.38;;;2.75;100.00
13732;BME280;6937;56.096;12.664;2023-02-03T00:20:37;101122.16;;;2.75;100.00
13732;BME280;6937;56.096;12.664;2023-02-03T00:23:08;101127.53;;;2.72;100.00
13732;BME280;6937;56.096;12.664;2023-02-03T00:25:34;101117.25;;;2.64;100.00
13732;BME280;6937;56.096;12.664;2023-02-03T00:27:59;101111.25;;;2.59;100.00
13732;BME280;6937;56.096;12.664;2023-02-03T00:30:24;101095.75;;;2.50;100.00
13732;BME280;6937;56.096;12.664;2023-02-03T00:32:50;101090.84;;;2.39;100.00
13732;BME280;6937;56.096;12.664;2023-02-03T00:35:16;101076.34;;;2.26;100.00
13732;BME280;6937;56.096;12.664;2023-02-03T00:37:41;101078.94;;;2.28;100.00
13732;BME280;6937;56.096;12.664;2023-02-03T00:40:07;101076.22;;;2.29;100.00
13732;BME280;6937;56.096;12.664;2023-02-03T00:42:33;101080.50;;;2.33;100.00
13732;BME280;6937;56.096;12.664;2023-02-03T00:44:59;101085.72;;;2.35;100.00
13732;BME280;6937;56.096;12.664;2023-02-03T00:47:25;101095.50;;;2.31;100.00
13732;BME280;6937;56.096;12.664;2023-02-03T00:49:50;101086.28;;;2.18;100.00
13732;BME280;6937;56.096;12.664;2023-02-03T00:52:15;101074.41;;;2.05;100.00
13732;BME280;6937;56.096;12.664;2023-02-03T00:54:41;101071.16;;;1.97;100.00
13732;BME280;6937;56.096;12.664;2023-02-03T00:57:06;101064.25;;;1.93;100.00
13732;BME280;6937;56.096;12.664;2023-02-03T00:59:31;101066.09;;;1.91;100.00
13732;BME280;6937;56.096;12.664;2023-02-03T01:01:57;101060.19;;;1.83;100.00
13732;BME280;6937;56.096;12.664;2023-02-03T01:04:22;101042.69;;;1.80;100.00
13732;BME280;6937;56.096;12.664;2023-02-03T01:06:48;101045.34;;;1.80;100.00
13732;BME280;6937;56.096;12.664;2023-02-03T01:09:13;101039.25;;;1.78;100.00
13732;BME280;6937;56.096;12.664;2023-02-03T01:11:39;101026.06;;;1.80;100.00
13732;BME280;6937;56.096;12.664;2023-02-03T01:14:04;101027.75;;;1.81;100.00
13732;BME280;6937;56.096;12.664;2023-02-03T01:16:30;101009.53;;;1.75;100.00
13732;BME280;6937;56.096;12.664;2023-02-03T01:18:59;101012.88;;;1.80;100.00
13732;BME280;6937;56.096;12.664;2023-02-03T01:21:25;100987.47;;;1.77;100.00
13732;BME280;6937;56.096;12.664;2023-02-03T01:23:51;100983.81;;;1.81;100.00
13732;BME280;6937;56.096;12.664;2023-02-03T01:26:20;100974.13;;;1.83;100.00
13732;BME280;6937;56.096;12.664;2023-02-03T01:28:59;100967.16;;;1.81;100.00
13732;BME280;6937;56.096;12.664;2023-02-03T01:31:30;100959.25;;;1.81;100.00
13732;BME280;6937;56.096;12.664;2023-02-03T01:33:57;100959.31;;;1.79;100.00
13732;BME280;6937;56.096;12.664;2023-02-03T01:36:24;100961.88;;;1.81;100.00
13732;BME280;6937;56.096;12.664;2023-02-03T01:38:50;100942.75;;;1.76;100.00
13732;BME280;6937;56.096;12.664;2023-02-03T01:41:19;100927.03;;;1.73;100.00
13732;BME280;6937;56.096;12.664;2023-02-03T01:43:49;100916.66;;;1.68;100.00
13732;BME280;6937;56.096;12.664;2023-02-03T01:46:28;100925.47;;;1.67;100.00
13732;BME280;6937;56.096;12.664;2023-02-03T01:49:00;100908.03;;;1.63;100.00
13732;BME280;6937;56.096;12.664;2023-02-03T01:51:28;100896.63;;;1.63;100.00
13732;BME280;6937;56.096;12.664;2023-02-03T01:53:54;100887.00;;;1.62;100.00
13732;BME280;6937;56.096;12.664;2023-02-03T01:56:20;100878.28;;;1.61;100.00
13732;BME280;6937;56.096;12.664;2023-02-03T01:58:46;100866.81;;;1.62;100.00
13732;BME280;6937;56.096;12.664;2023-02-03T02:01:13;100865.94;;;1.62;100.00
13732;BME280;6937;56.096;12.664;2023-02-03T02:03:51;100845.72;;;1.62;100.00
13732;BME280;6937;56.096;12.664;2023-02-03T02:06:18;100830.91;;;1.60;100.00
13732;BME280;6937;56.096;12.664;2023-02-03T02:08:50;100823.88;;;1.60;100.00
13732;BME280;6937;56.096;12.664;2023-02-03T02:11:17;100808.09;;;1.59;100.00
13732;BME280;6937;56.096;12.664;2023-02-03T02:13:44;100793.16;;;1.59;100.00
13732;BME280;6937;56.096;12.664;2023-02-03T02:22:37;100743.16;;;1.58;100.00
13732;BME280;6937;56.096;12.664;2023-02-03T02:28:01;100717.09;;;1.50;100.00
13732;BME280;6937;56.096;12.664;2023-02-03T02:30:42;100704.75;;;1.52;100.00
13732;BME280;6937;56.096;12.664;2023-02-03T02:36:31;100669.66;;;1.52;100.00
13732;BME280;6937;56.096;12.664;2023-02-03T02:41:34;100652.03;;;1.54;100.00
13732;BME280;6937;56.096;12.664;2023-02-03T02:44:16;100644.06;;;1.55;100.00
13732;BME280;6937;56.096;12.664;2023-02-03T02:46:47;100617.81;;;1.54;100.00
13732;BME280;6937;56.096;12.664;2023-02-03T02:49:20;100609.09;;;1.52;100.00
13732;BME280;6937;56.096;12.664;2023-02-03T02:51:47;100591.47;;;1.54;100.00
13732;BME280;6937;56.096;12.664;2023-02-03T02:54:16;100599.41;;;1.52;100.00
13732;BME280;6937;56.096;12.664;2023-02-03T02:56:44;100579.13;;;1.54;100.00
13732;BME280;6937;56.096;12.664;2023-02-03T02:59:13;100565.97;;;1.54;100.00
13732;BME280;6937;56.096;12.664;2023-02-03T03:01:39;100550.13;;;1.56;100.00
13732;BME280;6937;56.096;12.664;2023-02-03T03:04:07;100537.88;;;1.55;100.00
13732;BME280;6937;56.096;12.664;2023-02-03T03:06:38;100523.00;;;1.54;100.00
13732;BME280;6937;56.096;12.664;2023-02-03T03:09:35;100521.28;;;1.53;100.00
13732;BME280;6937;56.096;12.664;2023-02-03T03:12:10;100494.25;;;1.48;100.00
13732;BME280;6937;56.096;12.664;2023-02-03T03:14:41;100477.84;;;1.41;100.00
13732;BME280;6937;56.096;12.664;2023-02-03T03:17:10;100469.84;;;1.44;100.00
13732;BME280;6937;56.096;12.664;2023-02-03T03:19:47;100446.88;;;1.48;100.00
13732;BME280;6937;56.096;12.664;2023-02-03T03:22:14;100457.28;;;1.51;100.00
13732;BME280;6937;56.096;12.664;2023-02-03T03:24:51;100459.13;;;1.49;100.00
13732;BME280;6937;56.096;12.664;2023-02-03T03:27:23;100453.84;;;1.49;100.00
13732;BME280;6937;56.096;12.664;2023-02-03T03:29:59;100428.53;;;1.46;100.00
13732;BME280;6937;56.096;12.664;2023-02-03T03:32:25;100425.63;;;1.52;100.00
13732;BME280;6937;56.096;12.664;2023-02-03T03:34:53;100416.13;;;1.48;100.00
13732;BME280;6937;56.096;12.664;2023-02-03T03:39:57;100396.97;;;1.44;100.00
13732;BME280;6937;56.096;12.664;2023-02-03T03:42:47;100379.44;;;1.43;100.00
13732;BME280;6937;56.096;12.664;2023-02-03T03:48:15;100363.75;;;1.42;100.00
13732;BME280;6937;56.096;12.664;2023-02-03T03:50:49;100369.78;;;1.44;100.00
13732;BME280;6937;56.096;12.664;2023-02-03T03:53:16;100356.63;;;1.44;100.00
13732;BME280;6937;56.096;12.664;2023-02-03T03:55:46;100353.94;;;1.45;100.00
13732;BME280;6937;56.096;12.664;2023-02-03T03:58:17;100353.94;;;1.45;100.00
13732;BME280;6937;56.096;12.664;2023-02-03T04:00:44;100344.38;;;1.43;100.00
13732;BME280;6937;56.096;12.664;2023-02-03T04:03:14;100329.38;;;1.45;100.00
13732;BME280;6937;56.096;12.664;2023-02-03T04:05:41;100314.50;;;1.44;100.00
13732;BME280;6937;56.096;12.664;2023-02-03T04:08:07;100318.00;;;1.44;100.00
13732;BME280;6937;56.096;12.664;2023-02-03T04:10:34;100299.56;;;1.44;100.00
13732;BME280;6937;56.096;12.664;2023-02-03T04:13:01;100289.03;;;1.44;100.00
13732;BME280;6937;56.096;12.664;2023-02-03T04:15:27;100276.72;;;1.45;100.00
13732;BME280;6937;56.096;12.664;2023-02-03T04:17:53;100297.69;;;1.46;100.00
13732;BME280;6937;56.096;12.664;2023-02-03T04:20:19;100270.66;;;1.43;100.00
13732;BME280;6937;56.096;12.664;2023-02-03T04:22:44;100253.94;;;1.44;100.00
13732;BME280;6937;56.096;12.664;2023-02-03T04:25:10;100258.34;;;1.43;100.00
13732;BME280;6937;56.096;12.664;2023-02-03T04:27:35;100238.19;;;1.42;100.00
13732;BME280;6937;56.096;12.664;2023-02-03T04:30:01;100217.13;;;1.42;100.00
13732;BME280;6937;56.096;12.664;2023-02-03T04:32:26;100208.31;;;1.43;100.00
13732;BME280;6937;56.096;12.664;2023-02-03T04:34:52;100189.84;;;1.45;100.00
13732;BME280;6937;56.096;12.664;2023-02-03T04:37:17;100188.97;;;1.44;100.00
13732;BME280;6937;56.096;12.664;2023-02-03T04:39:42;100191.47;;;1.48;100.00
13732;BME280;6937;56.096;12.664;2023-02-03T04:42:08;100182.00;;;1.43;100.00
13732;BME280;6937;56.096;12.664;2023-02-03T04:44:33;100178.31;;;1.48;100.00
13732;BME280;6937;56.096;12.664;2023-02-03T04:46:59;100173.91;;;1.48;100.00
13732;BME280;6937;56.096;12.664;2023-02-03T04:49:24;100155.53;;;1.46;100.00
13732;BME280;6937;56.096;12.664;2023-02-03T04:51:49;100157.34;;;1.46;100.00
13732;BME280;6937;56.096;12.664;2023-02-03T04:54:15;100154.63;;;1.48;100.00
13732;BME280;6937;56.096;12.664;2023-02-03T04:56:40;100129.09;;;1.50;100.00
13732;BME280;6937;56.096;12.664;2023-02-03T04:59:06;100104.53;;;1.49;100.00
13732;BME280;6937;56.096;12.664;2023-02-03T05:01:31;100094.06;;;1.48;100.00
13732;BME280;6937;56.096;12.664;2023-02-03T05:03:57;100078.25;;;1.48;100.00
13732;BME280;6937;56.096;12.664;2023-02-03T05:06:26;100038.56;;;1.52;100.00
13732;BME280;6937;56.096;12.664;2023-02-03T05:08:57;100051.72;;;1.52;100.00
13732;BME280;6937;56.096;12.664;2023-02-03T05:11:22;100044.69;;;1.53;100.00
13732;BME280;6937;56.096;12.664;2023-02-03T05:13:48;100034.00;;;1.56;100.00
13732;BME280;6937;56.096;12.664;2023-02-03T05:16:13;100019.06;;;1.56;100.00
13732;BME280;6937;56.096;12.664;2023-02-03T05:18:39;100004.97;;;1.57;100.00
13732;BME280;6937;56.096;12.664;2023-02-03T05:21:05;99970.81;;;1.56;100.00
13732;BME280;6937;56.096;12.664;2023-02-03T05:23:30;99974.22;;;1.58;100.00
13732;BME280;6937;56.096;12.664;2023-02-03T05:25:55;99973.94;;;1.64;100.00
13732;BME280;6937;56.096;12.664;2023-02-03T05:28:20;99959.00;;;1.64;100.00
13732;BME280;6937;56.096;12.664;2023-02-03T05:30:46;99933.41;;;1.66;100.00
13732;BME280;6937;56.096;12.664;2023-02-03T05:33:11;99930.78;;;1.66;100.00
13732;BME280;6937;56.096;12.664;2023-02-03T05:35:37;99923.69;;;1.68;100.00
13732;BME280;6937;56.096;12.664;2023-02-03T05:38:02;99945.44;;;1.72;100.00
13732;BME280;6937;56.096;12.664;2023-02-03T05:40:28;99924.06;;;1.78;100.00
13732;BME280;6937;56.096;12.664;2023-02-03T05:43:12;99906.25;;;1.83;100.00
13732;BME280;6937;56.096;12.664;2023-02-03T05:45:38;99879.75;;;1.86;100.00
13732;BME280;6937;56.096;12.664;2023-02-03T05:48:03;99863.78;;;1.89;100.00
13732;BME280;6937;56.096;12.664;2023-02-03T05:50:29;99854.63;;;1.96;100.00
13732;BME280;6937;56.096;12.664;2023-02-03T05:53:02;99829.13;;;1.97;100.00
13732;BME280;6937;56.096;12.664;2023-02-03T05:55:29;99833.00;;;2.07;100.00
13732;BME280;6937;56.096;12.664;2023-02-03T05:57:55;99824.09;;;2.09;100.00
13732;BME280;6937;56.096;12.664;2023-02-03T06:00:21;99801.81;;;2.15;100.00
13732;BME280;6937;56.096;12.664;2023-02-03T06:03:00;99774.88;;;2.25;100.00
13732;BME280;6937;56.096;12.664;2023-02-03T06:05:30;99775.50;;;2.30;100.00
13732;BME280;6937;56.096;12.664;2023-02-03T06:07:56;99767.22;;;2.36;100.00
13732;BME280;6937;56.096;12.664;2023-02-03T06:10:21;99760.63;;;2.45;100.00
13732;BME280;6937;56.096;12.664;2023-02-03T06:12:47;99747.59;;;2.58;100.00
13732;BME280;6937;56.096;12.664;2023-02-03T06:15:13;99736.38;;;2.70;100.00
13732;BME280;6937;56.096;12.664;2023-02-03T06:17:43;99714.84;;;2.77;100.00
13732;BME280;6937;56.096;12.664;2023-02-03T06:20:10;99691.66;;;2.82;100.00
13732;BME280;6937;56.096;12.664;2023-02-03T06:22:36;99690.72;;;2.83;100.00
13732;BME280;6937;56.096;12.664;2023-02-03T06:25:02;99703.47;;;2.91;100.00
13732;BME280;6937;56.096;12.664;2023-02-03T06:27:27;99678.81;;;2.92;100.00
13732;BME280;6937;56.096;12.664;2023-02-03T06:29:53;99657.59;;;2.93;100.00
13732;BME280;6937;56.096;12.664;2023-02-03T06:32:18;99641.00;;;2.91;100.00
13732;BME280;6937;56.096;12.664;2023-02-03T06:34:44;99640.75;;;3.10;100.00
13732;BME280;6937;56.096;12.664;2023-02-03T06:37:09;99648.69;;;3.24;100.00
13732;BME280;6937;56.096;12.664;2023-02-03T06:39:34;99615.63;;;3.33;100.00
13732;BME280;6937;56.096;12.664;2023-02-03T06:42:00;99612.13;;;3.47;100.00
13732;BME280;6937;56.096;12.664;2023-02-03T06:44:25;99617.78;;;3.40;100.00
13732;BME280;6937;56.096;12.664;2023-02-03T06:46:51;99622.22;;;3.40;100.00
13732;BME280;6937;56.096;12.664;2023-02-03T06:49:17;99609.47;;;3.47;100.00
13732;BME280;6937;56.096;12.664;2023-02-03T06:51:43;99603.16;;;3.49;100.00
13732;BME280;6937;56.096;12.664;2023-02-03T06:54:10;99592.31;;;3.54;100.00
13732;BME280;6937;56.096;12.664;2023-02-03T06:56:35;99582.03;;;3.63;100.00
13732;BME280;6937;56.096;12.664;2023-02-03T06:59:01;99580.59;;;3.72;100.00
13732;BME280;6937;56.096;12.664;2023-02-03T07:01:26;99564.25;;;3.79;100.00
13732;BME280;6937;56.096;12.664;2023-02-03T07:03:54;99559.44;;;3.86;100.00
13732;BME280;6937;56.096;12.664;2023-02-03T07:06:22;99538.19;;;3.87;100.00
13732;BME280;6937;56.096;12.664;2023-02-03T07:08:48;99533.53;;;3.91;100.00
13732;BME280;6937;56.096;12.664;2023-02-03T07:11:13;99531.47;;;3.96;100.00
13732;BME280;6937;56.096;12.664;2023-02-03T07:13:38;99533.81;;;4.01;100.00
13732;BME280;6937;56.096;12.664;2023-02-03T07:16:04;99527.25;;;4.06;100.00
13732;BME280;6937;56.096;12.664;2023-02-03T07:18:30;99522.75;;;4.08;100.00
13732;BME280;6937;56.096;12.664;2023-02-03T07:20:55;99520.75;;;4.12;100.00
13732;BME280;6937;56.096;12.664;2023-02-03T07:23:21;99530.03;;;4.17;100.00
13732;BME280;6937;56.096;12.664;2023-02-03T07:25:46;99506.31;;;4.03;100.00
13732;BME280;6937;56.096;12.664;2023-02-03T07:28:11;99504.09;;;3.97;100.00
13732;BME280;6937;56.096;12.664;2023-02-03T07:30:37;99520.41;;;4.16;100.00
13732;BME280;6937;56.096;12.664;2023-02-03T07:33:02;99476.19;;;4.70;100.00
13732;BME280;6937;56.096;12.664;2023-02-03T07:35:27;99483.47;;;4.92;100.00
13732;BME280;6937;56.096;12.664;2023-02-03T07:37:53;99479.63;;;5.21;100.00
13732;BME280;6937;56.096;12.664;2023-02-03T07:40:18;99460.19;;;5.46;100.00
13732;BME280;6937;56.096;12.664;2023-02-03T07:42:47;99446.16;;;5.57;100.00
13732;BME280;6937;56.096;12.664;2023-02-03T07:45:14;99432.34;;;5.64;100.00
13732;BME280;6937;56.096;12.664;2023-02-03T07:47:41;99424.31;;;5.66;100.00
13732;BME280;6937;56.096;12.664;2023-02-03T07:50:08;99425.88;;;5.68;100.00
13732;BME280;6937;56.096;12.664;2023-02-03T07:52:34;99420.25;;;5.73;100.00
13732;BME280;6937;56.096;12.664;2023-02-03T07:54:59;99404.72;;;5.79;100.00
13732;BME280;6937;56.096;12.664;2023-02-03T07:57:25;99393.66;;;5.85;100.00
13732;BME280;6937;56.096;12.664;2023-02-03T07:59:51;99398.03;;;5.87;100.00
13732;BME280;6937;56.096;12.664;2023-02-03T08:02:16;99398.88;;;5.87;100.00
13732;BME280;6937;56.096;12.664;2023-02-03T08:04:42;99393.25;;;5.92;100.00
13732;BME280;6937;56.096;12.664;2023-02-03T08:07:07;99381.88;;;5.90;100.00
13732;BME280;6937;56.096;12.664;2023-02-03T08:09:33;99385.41;;;5.90;100.00
13732;BME280;6937;56.096;12.664;2023-02-03T08:11:58;99388.78;;;5.92;100.00
13732;BME280;6937;56.096;12.664;2023-02-03T08:14:23;99386.00;;;5.94;100.00
13732;BME280;6937;56.096;12.664;2023-02-03T08:16:49;99380.25;;;6.00;100.00
13732;BME280;6937;56.096;12.664;2023-02-03T08:19:14;99392.28;;;6.04;100.00
13732;BME280;6937;56.096;12.664;2023-02-03T08:21:40;99378.94;;;6.05;100.00
13732;BME280;6937;56.096;12.664;2023-02-03T08:24:05;99384.75;;;6.10;100.00
13732;BME280;6937;56.096;12.664;2023-02-03T08:26:30;99378.59;;;6.10;100.00
13732;BME280;6937;56.096;12.664;2023-02-03T08:28:56;99380.16;;;6.12;100.00
13732;BME280;6937;56.096;12.664;2023-02-03T08:31:22;99385.00;;;6.18;100.00
13732;BME280;6937;56.096;12.664;2023-02-03T08:33:48;99399.69;;;6.22;100.00
13732;BME280;6937;56.096;12.664;2023-02-03T08:36:13;99384.63;;;6.23;100.00
13732;BME280;6937;56.096;12.664;2023-02-03T08:38:39;99364.41;;;6.22;100.00
13732;BME280;6937;56.096;12.664;2023-02-03T08:41:13;99380.31;;;6.22;100.00
13732;BME280;6937;56.096;12.664;2023-02-03T08:43:39;99372.34;;;6.22;100.00
13732;BME280;6937;56.096;12.664;2023-02-03T08:46:06;99371.50;;;6.21;100.00
13732;BME280;6937;56.096;12.664;2023-02-03T08:48:32;99362.56;;;6.22;100.00
13732;BME280;6937;56.096;12.664;2023-02-03T08:50:58;99383.78;;;6.22;100.00
13732;BME280;6937;56.096;12.664;2023-02-03T08:53:23;99374.16;;;6.21;100.00
13732;BME280;6937;56.096;12.664;2023-02-03T08:55:49;99374.63;;;6.26;100.00
13732;BME280;6937;56.096;12.664;2023-02-03T08:58:14;99384.78;;;6.32;100.00
13732;BME280;6937;56.096;12.664;2023-02-03T09:00:40;99372.84;;;6.38;100.00
13732;BME280;6937;56.096;12.664;2023-02-03T09:03:06;99376.94;;;6.42;100.00
13732;BME280;6937;56.096;12.664;2023-02-03T09:05:32;99379.25;;;6.47;100.00
13732;BME280;6937;56.096;12.664;2023-02-03T09:07:57;99384.31;;;6.50;100.00
13732;BME280;6937;56.096;12.664;2023-02-03T09:10:23;99376.59;;;6.47;100.00
13732;BME280;6937;56.096;12.664;2023-02-03T09:12:48;99382.75;;;6.47;100.00
13732;BME280;6937;56.096;12.664;2023-02-03T09:15:13;99386.25;;;6.48;100.00
13732;BME280;6937;56.096;12.664;2023-02-03T09:17:39;99379.97;;;6.49;100.00
13732;BME280;6937;56.096;12.664;2023-02-03T09:20:04;99387.56;;;6.42;100.00
13732;BME280;6937;56.096;12.664;2023-02-03T09:22:30;99400.84;;;6.42;100.00
13732;BME280;6937;56.096;12.664;2023-02-03T09:24:55;99410.00;;;6.38;100.00
13732;BME280;6937;56.096;12.664;2023-02-03T09:27:21;99406.72;;;6.35;100.00
13732;BME280;6937;56.096;12.664;2023-02-03T09:29:46;99424.44;;;6.34;100.00
13732;BME280;6937;56.096;12.664;2023-02-03T09:32:11;99424.59;;;6.32;100.00
13732;BME280;6937;56.096;12.664;2023-02-03T09:34:37;99446.53;;;6.35;100.00
13732;BME280;6937;56.096;12.664;2023-02-03T09:37:04;99457.28;;;6.33;100.00
13732;BME280;6937;56.096;12.664;2023-02-03T09:39:29;99467.28;;;6.29;100.00
13732;BME280;6937;56.096;12.664;2023-02-03T09:45:05;99458.19;;;6.21;100.00
13732;BME280;6937;56.096;12.664;2023-02-03T09:47:35;99457.59;;;6.17;100.00
13732;BME280;6937;56.096;12.664;2023-02-03T09:50:06;99464.06;;;6.13;100.00
13732;BME280;6937;56.096;12.664;2023-02-03T09:52:37;99476.16;;;6.17;100.00
13732;BME280;6937;56.096;12.664;2023-02-03T09:55:15;99484.09;;;6.17;100.00
13732;BME280;6937;56.096;12.664;2023-02-03T09:57:51;99496.75;;;6.14;100.00
13732;BME280;6937;56.096;12.664;2023-02-03T10:00:25;99503.00;;;6.13;100.00
13732;BME280;6937;56.096;12.664;2023-02-03T10:02:59;99515.19;;;6.15;100.00
13732;BME280;6937;56.096;12.664;2023-02-03T10:05:42;99530.91;;;6.18;100.00
13732;BME280;6937;56.096;12.664;2023-02-03T10:11:18;99548.09;;;6.13;100.00
13732;BME280;6937;56.096;12.664;2023-02-03T10:18:59;99597.03;;;6.32;100.00
13732;BME280;6937;56.096;12.664;2023-02-03T10:21:43;99598.81;;;6.45;100.00
13732;BME280;6937;56.096;12.664;2023-02-03T10:24:26;99613.41;;;6.50;100.00
13732;BME280;6937;56.096;12.664;2023-02-03T10:26:56;99611.09;;;6.46;100.00
13732;BME280;6937;56.096;12.664;2023-02-03T10:29:36;99629.66;;;6.46;100.00
13732;BME280;6937;56.096;12.664;2023-02-03T10:32:09;99634.06;;;6.34;100.00
13732;BME280;6937;56.096;12.664;2023-02-03T10:34:35;99651.06;;;6.31;100.00
13732;BME280;6937;56.096;12.664;2023-02-03T10:37:25;99657.78;;;6.24;100.00
13732;BME280;6937;56.096;12.664;2023-02-03T10:39:53;99665.75;;;6.12;100.00
13732;BME280;6937;56.096;12.664;2023-02-03T10:42:19;99667.38;;;6.02;100.00
13732;BME280;6937;56.096;12.664;2023-02-03T10:44:50;99679.25;;;5.96;100.00
13732;BME280;6937;56.096;12.664;2023-02-03T10:47:27;99665.88;;;5.85;100.00
13732;BME280;6937;56.096;12.664;2023-02-03T10:50:03;99663.88;;;5.76;100.00
13732;BME280;6937;56.096;12.664;2023-02-03T10:52:31;99670.03;;;5.64;100.00
13732;BME280;6937;56.096;12.664;2023-02-03T10:54:59;99677.34;;;5.60;100.00
13732;BME280;6937;56.096;12.664;2023-02-03T10:57:28;99653.81;;;5.56;100.00
13732;BME280;6937;56.096;12.664;2023-02-03T11:00:07;99672.56;;;5.53;100.00
13732;BME280;6937;56.096;12.664;2023-02-03T11:02:44;99677.34;;;5.48;100.00
13732;BME280;6937;56.096;12.664;2023-02-03T11:07:42;99663.97;;;5.36;100.00
13732;BME280;6937;56.096;12.664;2023-02-03T11:13:10;99668.66;;;5.20;100.00
13732;BME280;6937;56.096;12.664;2023-02-03T11:15:35;99644.16;;;5.17;100.00
13732;BME280;6937;56.096;12.664;2023-02-03T11:18:01;99651.34;;;5.15;100.00
13732;BME280;6937;56.096;12.664;2023-02-03T11:20:27;99653.38;;;5.11;100.00
13732;BME280;6937;56.096;12.664;2023-02-03T11:22:53;99649.00;;;5.10;100.00
13732;BME280;6937;56.096;12.664;2023-02-03T11:25:24;99635.88;;;5.09;100.00
13732;BME280;6937;56.096;12.664;2023-02-03T11:27:52;99632.59;;;5.05;100.00
13732;BME280;6937;56.096;12.664;2023-02-03T11:30:26;99655.38;;;5.08;100.00
13732;BME280;6937;56.096;12.664;2023-02-03T11:32:54;99665.75;;;5.11;100.00
13732;BME280;6937;56.096;12.664;2023-02-03T11:35:24;99647.00;;;5.14;100.00
13732;BME280;6937;56.096;12.664;2023-02-03T11:37:53;99628.28;;;5.17;100.00
13732;BME280;6937;56.096;12.664;2023-02-03T11:43:00;99643.00;;;5.21;100.00
13732;BME280;6937;56.096;12.664;2023-02-03T11:45:37;99630.06;;;5.16;100.00
13732;BME280;6937;56.096;12.664;2023-02-03T11:57:10;99661.81;;;5.04;100.00
13732;BME280;6937;56.096;12.664;2023-02-03T12:07:40;99711.47;;;4.61;100.00
13732;BME280;6937;56.096;12.664;2023-02-03T12:10:22;99696.63;;;4.58;100.00
13732;BME280;6937;56.096;12.664;2023-02-03T12:18:39;99716.69;;;4.48;100.00
13732;BME280;6937;56.096;12.664;2023-02-03T12:26:22;99728.69;;;4.39;100.00
13732;BME280;6937;56.096;12.664;2023-02-03T12:29:07;99762.53;;;4.34;100.00
13732;BME280;6937;56.096;12.664;2023-02-03T12:34:27;99762.25;;;4.25;100.00
13732;BME280;6937;56.096;12.664;2023-02-03T12:37:12;99781.16;;;4.19;100.00
13732;BME280;6937;56.096;12.664;2023-02-03T12:40:02;99792.94;;;4.13;100.00
13732;BME280;6937;56.096;12.664;2023-02-03T12:42:38;99785.78;;;4.15;100.00
13732;BME280;6937;56.096;12.664;2023-02-03T12:45:11;99808.72;;;4.15;100.00
13732;BME280;6937;56.096;12.664;2023-02-03T12:47:40;99796.63;;;4.11;100.00
13732;BME280;6937;56.096;12.664;2023-02-03T12:50:20;99807.13;;;4.12;100.00
13732;BME280;6937;56.096;12.664;2023-02-03T12:53:14;99822.28;;;4.09;100.00
13732;BME280;6937;56.096;12.664;2023-02-03T12:55:50;99830.69;;;4.01;100.00
13732;BME280;6937;56.096;12.664;2023-02-03T12:58:34;99849.75;;;3.92;100.00
13732;BME280;6937;56.096;12.664;2023-02-03T13:01:06;99858.81;;;3.88;100.00
13732;BME280;6937;56.096;12.664;2023-02-03T13:03:43;99868.78;;;3.83;100.00
13732;BME280;6937;56.096;12.664;2023-02-03T13:09:04;99862.16;;;3.76;100.00
13732;BME280;6937;56.096;12.664;2023-02-03T13:11:47;99869.88;;;3.65;100.00
13732;BME280;6937;56.096;12.664;2023-02-03T13:14:41;99880.03;;;3.57;100.00
13732;BME280;6937;56.096;12.664;2023-02-03T13:17:18;99894.03;;;3.59;100.00
13732;BME280;6937;56.096;12.664;2023-02-03T13:19:54;99912.31;;;3.62;100.00
13732;BME280;6937;56.096;12.664;2023-02-03T13:22:21;99927.66;;;3.71;100.00
13732;BME280;6937;56.096;12.664;2023-02-03T13:25:02;99946.53;;;3.79;100.00
13732;BME280;6937;56.096;12.664;2023-02-03T13:41:10;99990.22;;;4.16;100.00
13732;BME280;6937;56.096;12.664;2023-02-03T13:43:47;100003.25;;;4.19;100.00
13732;BME280;6937;56.096;12.664;2023-02-03T13:46:24;100004.59;;;4.26;100.00
13732;BME280;6937;56.096;12.664;2023-02-03T13:48:51;100011.91;;;4.36;100.00
13732;BME280;6937;56.096;12.664;2023-02-03T13:51:33;100023.34;;;4.37;100.00
13732;BME280;6937;56.096;12.664;2023-02-03T13:54:05;100037.91;;;4.44;100.00
13732;BME280;6937;56.096;12.664;2023-02-03T13:56:32;100055.09;;;4.37;100.00
13732;BME280;6937;56.096;12.664;2023-02-03T14:01:41;100098.72;;;3.99;100.00
13732;BME280;6937;56.096;12.664;2023-02-03T14:09:34;100134.53;;;3.73;100.00
13732;BME280;6937;56.096;12.664;2023-02-03T14:20:23;100201.22;;;3.61;100.00
13732;BME280;6937;56.096;12.664;2023-02-03T14:22:56;100223.31;;;3.60;100.00
13732;BME280;6937;56.096;12.664;2023-02-03T14:25:24;100234.03;;;3.57;100.00
13732;BME280;6937;56.096;12.664;2023-02-03T14:28:03;100251.66;;;3.56;100.00
13732;BME280;6937;56.096;12.664;2023-02-03T14:30:30;100270.41;;;3.52;100.00
13732;BME280;6937;56.096;12.664;2023-02-03T14:33:01;100274.84;;;3.51;100.00
13732;BME280;6937;56.096;12.664;2023-02-03T14:35:34;100280.03;;;3.53;100.00
13732;BME280;6937;56.096;12.664;2023-02-03T14:46:35;100306.44;;;3.53;100.00
13732;BME280;6937;56.096;12.664;2023-02-03T14:49:30;100335.13;;;3.43;100.00
13732;BME280;6937;56.096;12.664;2023-02-03T14:52:10;100347.63;;;3.39;100.00
13732;BME280;6937;56.096;12.664;2023-02-03T14:54:54;100359.09;;;3.38;100.00
13732;BME280;6937;56.096;12.664;2023-02-03T14:57:41;100371.34;;;3.41;100.00